sensor_id;sensor_type;location;lat;lon;timestamp;pressure;altitude;pressure_sealevel;temperature;humidity
61484;BME280;47349;55.640;37.692;2023-03-26T00:01:38;97901.06;;;7.84;100.00
61484;BME280;47349;55.640;37.692;2023-03-26T00:04:06;97902.69;;;7.85;100.00
61484;BME280;47349;55.640;37.692;2023-03-26T00:06:34;97900.03;;;7.85;100.00
61484;BME280;47349;55.640;37.692;2023-03-26T00:09:04;97904.50;;;7.78;100.00
61484;BME280;47349;55.640;37.692;2023-03-26T00:11:31;97894.25;;;7.75;100.00
61484;BME280;47349;55.640;37.692;2023-03-26T00:13:59;97889.31;;;7.78;100.00
61484;BME280;47349;55.640;37.692;2023-03-26T00:16:27;97893.44;;;7.81;100.00
61484;BME280;47349;55.640;37.692;2023-03-26T00:18:55;97898.78;;;7.81;100.00
61484;BME280;47349;55.640;37.692;2023-03-26T00:21:23;97894.06;;;7.83;100.00
61484;BME280;47349;55.640;37.692;2023-03-26T00:23:54;97887.69;;;7.77;100.00
61484;BME280;47349;55.640;37.692;2023-03-26T00:26:21;97893.44;;;7.74;100.00
61484;BME280;47349;55.640;37.692;2023-03-26T00:28:49;97897.94;;;7.73;100.00
61484;BME280;47349;55.640;37.692;2023-03-26T00:31:16;97900.59;;;7.73;100.00
61484;BME280;47349;55.640;37.692;2023-03-26T00:33:43;97906.75;;;7.67;100.00
61484;BME280;47349;55.640;37.692;2023-03-26T00:36:12;97897.72;;;7.68;100.00
61484;BME280;47349;55.640;37.692;2023-03-26T00:38:43;97903.47;;;7.65;100.00
61484;BME280;47349;55.640;37.692;2023-03-26T00:41:11;97905.72;;;7.68;100.00
61484;BME280;47349;55.640;37.692;2023-03-26T00:43:50;97902.03;;;7.69;100.00
61484;BME280;47349;55.640;37.692;2023-03-26T00:46:17;97896.72;;;7.69;100.00
61484;BME280;47349;55.640;37.692;2023-03-26T00:48:45;97887.69;;;7.70;100.00
61484;BME280;47349;55.640;37.692;2023-03-26T00:51:13;97893.03;;;7.70;100.00
61484;BME280;47349;55.640;37.692;2023-03-26T00:53:42;97883.38;;;7.69;100.00
61484;BME280;47349;55.640;37.692;2023-03-26T00:56:09;97877.03;;;7.70;100.00
61484;BME280;47349;55.640;37.692;2023-03-26T00:58:37;97869.84;;;7.71;100.00
61484;BME280;47349;55.640;37.692;2023-03-26T01:01:05;97857.75;;;7.75;100.00
61484;BME280;47349;55.640;37.692;2023-03-26T01:03:34;97863.25;;;7.73;100.00
61484;BME280;47349;55.640;37.692;2023-03-26T01:06:13;97860.59;;;7.73;100.00
61484;BME280;47349;55.640;37.692;2023-03-26T01:08:44;97859.59;;;7.75;100.00
61484;BME280;47349;55.640;37.692;2023-03-26T01:11:17;97861.44;;;7.74;100.00
61484;BME280;47349;55.640;37.692;2023-03-26T01:14:28;97861.84;;;7.78;100.00
61484;BME280;47349;55.640;37.692;2023-03-26T01:19:08;97863.50;;;7.79;100.00
61484;BME280;47349;55.640;37.692;2023-03-26T01:21:38;97853.44;;;7.81;100.00
61484;BME280;47349;55.640;37.692;2023-03-26T01:24:06;97859.00;;;7.86;100.00
61484;BME280;47349;55.640;37.692;2023-03-26T01:29:14;97866.00;;;7.93;100.00
61484;BME280;47349;55.640;37.692;2023-03-26T01:31:50;97858.59;;;7.89;100.00
61484;BME280;47349;55.640;37.692;2023-03-26T01:34:34;97863.13;;;7.88;100.00
61484;BME280;47349;55.640;37.692;2023-03-26T01:37:19;97857.78;;;7.88;100.00
61484;BME280;47349;55.640;37.692;2023-03-26T01:39:49;97855.72;;;7.90;100.00
61484;BME280;47349;55.640;37.692;2023-03-26T01:42:41;97844.22;;;7.90;100.00
61484;BME280;47349;55.640;37.692;2023-03-26T01:45:08;97851.00;;;7.86;100.00
61484;BME280;47349;55.640;37.692;2023-03-26T01:47:37;97854.47;;;7.86;100.00
61484;BME280;47349;55.640;37.692;2023-03-26T01:50:05;97856.53;;;7.91;100.00
61484;BME280;47349;55.640;37.692;2023-03-26T01:52:33;97844.66;;;7.93;100.00
61484;BME280;47349;55.640;37.692;2023-03-26T01:55:00;97836.03;;;7.98;100.00
61484;BME280;47349;55.640;37.692;2023-03-26T02:02:57;97845.88;;;8.04;100.00
61484;BME280;47349;55.640;37.692;2023-03-26T02:10:35;97828.63;;;7.87;100.00
61484;BME280;47349;55.640;37.692;2023-03-26T02:13:05;97829.03;;;7.84;100.00
61484;BME280;47349;55.640;37.692;2023-03-26T02:15:32;97820.44;;;7.88;100.00
61484;BME280;47349;55.640;37.692;2023-03-26T02:18:00;97823.09;;;7.95;100.00
61484;BME280;47349;55.640;37.692;2023-03-26T02:20:27;97825.56;;;7.90;100.00
61484;BME280;47349;55.640;37.692;2023-03-26T02:22:56;97824.53;;;7.84;100.00
61484;BME280;47349;55.640;37.692;2023-03-26T02:25:23;97825.13;;;7.80;100.00
61484;BME280;47349;55.640;37.692;2023-03-26T02:27:51;97826.56;;;7.76;100.00
61484;BME280;47349;55.640;37.692;2023-03-26T02:30:20;97826.16;;;7.79;100.00
61484;BME280;47349;55.640;37.692;2023-03-26T02:32:54;97826.16;;;7.79;100.00
61484;BME280;47349;55.640;37.692;2023-03-26T02:35:25;97815.50;;;7.79;100.00
61484;BME280;47349;55.640;37.692;2023-03-26T02:37:57;97819.81;;;7.80;100.00
61484;BME280;47349;55.640;37.692;2023-03-26T02:40:24;97816.72;;;7.83;100.00
61484;BME280;47349;55.640;37.692;2023-03-26T02:42:52;97810.59;;;7.89;100.00
61484;BME280;47349;55.640;37.692;2023-03-26T02:45:19;97812.00;;;7.91;100.00
61484;BME280;47349;55.640;37.692;2023-03-26T02:48:18;97811.78;;;7.86;100.00
61484;BME280;47349;55.640;37.692;2023-03-26T02:50:58;97810.75;;;7.87;100.00
61484;BME280;47349;55.640;37.692;2023-03-26T02:53:46;97819.59;;;7.88;100.00
61484;BME280;47349;55.640;37.692;2023-03-26T02:56:33;97806.25;;;7.88;100.00
61484;BME280;47349;55.640;37.692;2023-03-26T02:59:32;97812.81;;;7.92;100.00
61484;BME280;47349;55.640;37.692;2023-03-26T03:02:25;97806.47;;;7.86;100.00
61484;BME280;47349;55.640;37.692;2023-03-26T03:05:02;97809.97;;;7.80;100.00
61484;BME280;47349;55.640;37.692;2023-03-26T03:07:33;97804.84;;;7.79;100.00
61484;BME280;47349;55.640;37.692;2023-03-26T03:10:05;97799.91;;;7.76;100.00
61484;BME280;47349;55.640;37.692;2023-03-26T03:13:09;97797.41;;;7.67;100.00
61484;BME280;47349;55.640;37.692;2023-03-26T03:15:36;97802.97;;;7.59;100.00
61484;BME280;47349;55.640;37.692;2023-03-26T03:18:03;97798.03;;;7.63;100.00
61484;BME280;47349;55.640;37.692;2023-03-26T03:20:31;97797.25;;;7.69;100.00
61484;BME280;47349;55.640;37.692;2023-03-26T03:23:00;97792.28;;;7.72;100.00
61484;BME280;47349;55.640;37.692;2023-03-26T03:25:28;97798.25;;;7.75;100.00
61484;BME280;47349;55.640;37.692;2023-03-26T03:27:55;97792.09;;;7.81;100.00
61484;BME280;47349;55.640;37.692;2023-03-26T03:30:22;97798.69;;;7.85;100.00
61484;BME280;47349;55.640;37.692;2023-03-26T03:33:07;97790.88;;;7.90;100.00
61484;BME280;47349;55.640;37.692;2023-03-26T03:35:34;97778.16;;;7.79;100.00
61484;BME280;47349;55.640;37.692;2023-03-26T03:38:01;97774.44;;;7.73;100.00
61484;BME280;47349;55.640;37.692;2023-03-26T03:40:35;97766.66;;;7.71;100.00
61484;BME280;47349;55.640;37.692;2023-03-26T03:43:02;97765.03;;;7.70;100.00
61484;BME280;47349;55.640;37.692;2023-03-26T03:45:38;97766.66;;;7.65;100.00
61484;BME280;47349;55.640;37.692;2023-03-26T03:48:10;97763.78;;;7.60;100.00
61484;BME280;47349;55.640;37.692;2023-03-26T03:50:41;97761.75;;;7.55;100.00
61484;BME280;47349;55.640;37.692;2023-03-26T03:53:21;97759.25;;;7.54;100.00
61484;BME280;47349;55.640;37.692;2023-03-26T03:55:54;97765.22;;;7.56;100.00
61484;BME280;47349;55.640;37.692;2023-03-26T03:58:32;97765.00;;;7.64;100.00
61484;BME280;47349;55.640;37.692;2023-03-26T04:01:08;97753.53;;;7.70;100.00
61484;BME280;47349;55.640;37.692;2023-03-26T04:03:55;97764.22;;;7.70;100.00
61484;BME280;47349;55.640;37.692;2023-03-26T04:06:28;97758.66;;;7.58;100.00
61484;BME280;47349;55.640;37.692;2023-03-26T04:08:55;97759.28;;;7.60;100.00
61484;BME280;47349;55.640;37.692;2023-03-26T04:11:23;97749.84;;;7.64;100.00
61484;BME280;47349;55.640;37.692;2023-03-26T04:14:10;97754.34;;;7.70;100.00
61484;BME280;47349;55.640;37.692;2023-03-26T04:16:57;97750.25;;;7.75;100.00
61484;BME280;47349;55.640;37.692;2023-03-26T04:19:25;97752.94;;;7.75;100.00
61484;BME280;47349;55.640;37.692;2023-03-26T04:21:53;97749.22;;;7.76;100.00
61484;BME280;47349;55.640;37.692;2023-03-26T04:24:21;97755.38;;;7.76;100.00
61484;BME280;47349;55.640;37.692;2023-03-26T04:27:11;97748.59;;;7.73;100.00
61484;BME280;47349;55.640;37.692;2023-03-26T04:29:41;97743.69;;;7.70;100.00
61484;BME280;47349;55.640;37.692;2023-03-26T04:32:25;97735.47;;;7.72;100.00
61484;BME280;47349;55.640;37.692;2023-03-26T04:34:56;97725.84;;;7.71;100.00
61484;BME280;47349;55.640;37.692;2023-03-26T04:40:13;97731.00;;;7.59;100.00
61484;BME280;47349;55.640;37.692;2023-03-26T04:43:03;97725.03;;;7.51;100.00
61484;BME280;47349;55.640;37.692;2023-03-26T04:46:14;97728.31;;;7.46;100.00
61484;BME280;47349;55.640;37.692;2023-03-26T04:48:50;97718.47;;;7.46;100.00
61484;BME280;47349;55.640;37.692;2023-03-26T04:51:18;97710.66;;;7.52;100.00
61484;BME280;47349;55.640;37.692;2023-03-26T04:53:51;97718.28;;;7.55;100.00
61484;BME280;47349;55.640;37.692;2023-03-26T04:59:39;97710.69;;;7.65;100.00
61484;BME280;47349;55.640;37.692;2023-03-26T05:02:09;97703.50;;;7.65;100.00
61484;BME280;47349;55.640;37.692;2023-03-26T05:05:03;97693.66;;;7.66;100.00
61484;BME280;47349;55.640;37.692;2023-03-26T05:07:32;97699.41;;;7.69;100.00
61484;BME280;47349;55.640;37.692;2023-03-26T05:09:59;97707.19;;;7.64;100.00
61484;BME280;47349;55.640;37.692;2023-03-26T05:12:39;97696.53;;;7.64;100.00
61484;BME280;47349;55.640;37.692;2023-03-26T05:15:16;97705.16;;;7.60;100.00
61484;BME280;47349;55.640;37.692;2023-03-26T05:18:02;97704.72;;;7.56;100.00
61484;BME280;47349;55.640;37.692;2023-03-26T05:20:37;97702.69;;;7.45;100.00
61484;BME280;47349;55.640;37.692;2023-03-26T05:23:06;97698.97;;;7.33;100.00
61484;BME280;47349;55.640;37.692;2023-03-26T05:25:36;97694.88;;;7.30;100.00
61484;BME280;47349;55.640;37.692;2023-03-26T05:28:12;97695.09;;;7.35;100.00
61484;BME280;47349;55.640;37.692;2023-03-26T05:30:51;97703.06;;;7.42;100.00
61484;BME280;47349;55.640;37.692;2023-03-26T05:33:21;97697.75;;;7.48;100.00
61484;BME280;47349;55.640;37.692;2023-03-26T05:36:01;97698.97;;;7.53;100.00
61484;BME280;47349;55.640;37.692;2023-03-26T05:38:30;97693.84;;;7.58;100.00
61484;BME280;47349;55.640;37.692;2023-03-26T05:41:03;97697.34;;;7.58;100.00
61484;BME280;47349;55.640;37.692;2023-03-26T05:43:32;97689.53;;;7.63;100.00
61484;BME280;47349;55.640;37.692;2023-03-26T05:46:11;97686.06;;;7.63;100.00
61484;BME280;47349;55.640;37.692;2023-03-26T05:48:38;97684.63;;;7.60;100.00
61484;BME280;47349;55.640;37.692;2023-03-26T05:51:06;97691.00;;;7.59;100.00
61484;BME280;47349;55.640;37.692;2023-03-26T05:53:35;97687.91;;;7.49;100.00
61484;BME280;47349;55.640;37.692;2023-03-26T05:56:25;97687.09;;;7.35;100.00
61484;BME280;47349;55.640;37.692;2023-03-26T05:59:29;97676.41;;;7.22;100.00
61484;BME280;47349;55.640;37.692;2023-03-26T06:02:32;97668.63;;;7.07;100.00
61484;BME280;47349;55.640;37.692;2023-03-26T06:05:20;97669.84;;;7.11;100.00
61484;BME280;47349;55.640;37.692;2023-03-26T06:08:00;97668.63;;;7.20;100.00
61484;BME280;47349;55.640;37.692;2023-03-26T06:10:37;97659.41;;;7.30;100.00
61484;BME280;47349;55.640;37.692;2023-03-26T06:13:05;97664.13;;;7.41;100.00
61484;BME280;47349;55.640;37.692;2023-03-26T06:15:38;97657.75;;;7.48;100.00
61484;BME280;47349;55.640;37.692;2023-03-26T06:18:15;97655.50;;;7.59;100.00
61484;BME280;47349;55.640;37.692;2023-03-26T06:20:58;97644.03;;;7.65;100.00
61484;BME280;47349;55.640;37.692;2023-03-26T06:23:41;97644.00;;;7.71;100.00
61484;BME280;47349;55.640;37.692;2023-03-26T06:26:27;97640.13;;;7.74;100.00
61484;BME280;47349;55.640;37.692;2023-03-26T06:29:15;97631.91;;;7.76;100.00
61484;BME280;47349;55.640;37.692;2023-03-26T06:31:54;97631.50;;;7.79;100.00
61484;BME280;47349;55.640;37.692;2023-03-26T06:34:43;97632.50;;;7.78;100.00
61484;BME280;47349;55.640;37.692;2023-03-26T06:37:11;97624.34;;;7.66;100.00
61484;BME280;47349;55.640;37.692;2023-03-26T06:39:38;97628.44;;;7.62;100.00
61484;BME280;47349;55.640;37.692;2023-03-26T06:42:28;97623.69;;;7.64;100.00
61484;BME280;47349;55.640;37.692;2023-03-26T06:45:37;97620.00;;;7.71;100.00
61484;BME280;47349;55.640;37.692;2023-03-26T06:48:31;97616.94;;;7.75;100.00
61484;BME280;47349;55.640;37.692;2023-03-26T06:51:21;97615.28;;;7.80;100.00
61484;BME280;47349;55.640;37.692;2023-03-26T06:54:38;97616.31;;;7.72;100.00
61484;BME280;47349;55.640;37.692;2023-03-26T07:15:47;97588.53;;;8.00;100.00
61484;BME280;47349;55.640;37.692;2023-03-26T07:19:35;97575.44;;;7.98;100.00
61484;BME280;47349;55.640;37.692;2023-03-26T07:23:23;97572.56;;;7.93;100.00
61484;BME280;47349;55.640;37.692;2023-03-26T07:27:01;97572.41;;;7.82;100.00
61484;BME280;47349;55.640;37.692;2023-03-26T07:30:11;97562.34;;;7.77;100.00
61484;BME280;47349;55.640;37.692;2023-03-26T07:33:31;97561.13;;;7.80;100.00
61484;BME280;47349;55.640;37.692;2023-03-26T07:37:02;97576.72;;;7.76;100.00
61484;BME280;47349;55.640;37.692;2023-03-26T07:41:18;97566.09;;;7.69;100.00
61484;BME280;47349;55.640;37.692;2023-03-26T08:16:49;97534.56;;;7.46;100.00
61484;BME280;47349;55.640;37.692;2023-03-26T08:19:39;97541.09;;;7.51;100.00
61484;BME280;47349;55.640;37.692;2023-03-26T08:30:41;97524.50;;;7.55;100.00
61484;BME280;47349;55.640;37.692;2023-03-26T08:33:14;97520.97;;;7.61;100.00
61484;BME280;47349;55.640;37.692;2023-03-26T08:35:57;97518.09;;;7.63;100.00
61484;BME280;47349;55.640;37.692;2023-03-26T08:38:33;97513.97;;;7.67;100.00
61484;BME280;47349;55.640;37.692;2023-03-26T08:55:20;97501.91;;;7.58;100.00
61484;BME280;47349;55.640;37.692;2023-03-26T08:58:21;97488.81;;;7.56;100.00
61484;BME280;47349;55.640;37.692;2023-03-26T09:04:27;97490.63;;;7.62;100.00
61484;BME280;47349;55.640;37.692;2023-03-26T09:07:04;97486.09;;;7.63;100.00
61484;BME280;47349;55.640;37.692;2023-03-26T09:25:40;97482.91;;;7.41;100.00
61484;BME280;47349;55.640;37.692;2023-03-26T09:28:35;97481.66;;;7.50;100.00
61484;BME280;47349;55.640;37.692;2023-03-26T09:34:01;97482.84;;;7.54;100.00
61484;BME280;47349;55.640;37.692;2023-03-26T09:39:33;97455.56;;;7.65;100.00
61484;BME280;47349;55.640;37.692;2023-03-26T09:42:13;97453.91;;;7.64;100.00
61484;BME280;47349;55.640;37.692;2023-03-26T10:11:43;97444.44;;;7.68;100.00
61484;BME280;47349;55.640;37.692;2023-03-26T10:14:19;97438.69;;;7.71;100.00
61484;BME280;47349;55.640;37.692;2023-03-26T10:22:05;97430.69;;;7.71;100.00
61484;BME280;47349;55.640;37.692;2023-03-26T10:24:47;97440.31;;;7.72;100.00
61484;BME280;47349;55.640;37.692;2023-03-26T10:27:22;97429.25;;;7.76;100.00
61484;BME280;47349;55.640;37.692;2023-03-26T10:37:46;97421.25;;;7.76;100.00
61484;BME280;47349;55.640;37.692;2023-03-26T10:56:34;97413.78;;;7.91;100.00
61484;BME280;47349;55.640;37.692;2023-03-26T10:59:05;97419.53;;;7.88;100.00
61484;BME280;47349;55.640;37.692;2023-03-26T11:01:45;97413.19;;;7.89;100.00
61484;BME280;47349;55.640;37.692;2023-03-26T11:12:32;97405.13;;;7.95;100.00
61484;BME280;47349;55.640;37.692;2023-03-26T11:17:54;97413.56;;;7.92;100.00
61484;BME280;47349;55.640;37.692;2023-03-26T11:20:40;97405.53;;;7.92;100.00
61484;BME280;47349;55.640;37.692;2023-03-26T11:26:02;97409.66;;;7.95;100.00
61484;BME280;47349;55.640;37.692;2023-03-26T11:33:59;97400.03;;;7.94;100.00
61484;BME280;47349;55.640;37.692;2023-03-26T11:36:38;97407.84;;;7.89;100.00
61484;BME280;47349;55.640;37.692;2023-03-26T11:39:09;97406.81;;;7.90;100.00
61484;BME280;47349;55.640;37.692;2023-03-26T11:41:49;97402.28;;;7.90;100.00
61484;BME280;47349;55.640;37.692;2023-03-26T11:44:33;97404.16;;;7.90;100.00
61484;BME280;47349;55.640;37.692;2023-03-26T11:47:19;97395.72;;;7.93;100.00
61484;BME280;47349;55.640;37.692;2023-03-26T11:49:50;97399.41;;;7.92;100.00
61484;BME280;47349;55.640;37.692;2023-03-26T11:52:22;97397.72;;;7.97;100.00
61484;BME280;47349;55.640;37.692;2023-03-26T11:55:03;97398.16;;;7.94;100.00
61484;BME280;47349;55.640;37.692;2023-03-26T11:57:46;97389.34;;;7.94;100.00
61484;BME280;47349;55.640;37.692;2023-03-26T12:00:19;97403.50;;;7.94;100.00
61484;BME280;47349;55.640;37.692;2023-03-26T12:03:03;97404.78;;;7.85;100.00
61484;BME280;47349;55.640;37.692;2023-03-26T12:05:51;97402.72;;;7.87;100.00
61484;BME280;47349;55.640;37.692;2023-03-26T12:08:33;97385.66;;;7.95;100.00
61484;BME280;47349;55.640;37.692;2023-03-26T12:11:13;97388.72;;;7.92;100.00
61484;BME280;47349;55.640;37.692;2023-03-26T12:13:50;97387.97;;;7.85;100.00
61484;BME280;47349;55.640;37.692;2023-03-26T12:16:22;97393.72;;;7.82;100.00
61484;BME280;47349;55.640;37.692;2023-03-26T12:19:04;97395.34;;;7.83;100.00
61484;BME280;47349;55.640;37.692;2023-03-26T12:21:44;97381.59;;;7.86;100.00
61484;BME280;47349;55.640;37.692;2023-03-26T12:24:47;97369.53;;;7.83;100.00
61484;BME280;47349;55.640;37.692;2023-03-26T12:29:51;97376.97;;;7.75;100.00
61484;BME280;47349;55.640;37.692;2023-03-26T12:32:32;97376.69;;;7.83;100.00
61484;BME280;47349;55.640;37.692;2023-03-26T12:35:33;97367.69;;;7.84;100.00
61484;BME280;47349;55.640;37.692;2023-03-26T12:38:18;97367.69;;;7.77;100.00
61484;BME280;47349;55.640;37.692;2023-03-26T12:41:13;97359.69;;;7.84;100.00
61484;BME280;47349;55.640;37.692;2023-03-26T12:47:24;97363.06;;;7.66;100.00
61484;BME280;47349;55.640;37.692;2023-03-26T12:50:13;97355.22;;;7.71;100.00
61484;BME280;47349;55.640;37.692;2023-03-26T12:52:58;97373.09;;;7.70;100.00
61484;BME280;47349;55.640;37.692;2023-03-26T12:55:33;97353.78;;;7.68;100.00
61484;BME280;47349;55.640;37.692;2023-03-26T13:06:38;97370.66;;;7.62;100.00
61484;BME280;47349;55.640;37.692;2023-03-26T13:14:55;97360.38;;;7.66;100.00
61484;BME280;47349;55.640;37.692;2023-03-26T13:20:03;97364.28;;;7.63;100.00
61484;BME280;47349;55.640;37.692;2023-03-26T13:31:31;97356.22;;;7.45;100.00
61484;BME280;47349;55.640;37.692;2023-03-26T13:39:34;97366.00;;;7.51;100.00
61484;BME280;47349;55.640;37.692;2023-03-26T13:47:36;97348.44;;;7.37;100.00
61484;BME280;47349;55.640;37.692;2023-03-26T13:50:28;97360.34;;;7.34;100.00
61484;BME280;47349;55.640;37.692;2023-03-26T13:53:12;97350.94;;;7.32;100.00
61484;BME280;47349;55.640;37.692;2023-03-26T13:55:54;97348.63;;;7.42;100.00
61484;BME280;47349;55.640;37.692;2023-03-26T14:09:42;97352.16;;;7.36;100.00
61484;BME280;47349;55.640;37.692;2023-03-26T14:15:36;97361.13;;;7.41;100.00
61484;BME280;47349;55.640;37.692;2023-03-26T14:29:49;97357.31;;;7.31;100.00
61484;BME280;47349;55.640;37.692;2023-03-26T14:35:23;97358.31;;;7.30;100.00
61484;BME280;47349;55.640;37.692;2023-03-26T14:43:37;97341.94;;;7.26;100.00
61484;BME280;47349;55.640;37.692;2023-03-26T14:54:25;97343.97;;;7.31;100.00
61484;BME280;47349;55.640;37.692;2023-03-26T14:57:07;97352.97;;;7.30;100.00
61484;BME280;47349;55.640;37.692;2023-03-26T15:39:34;97338.69;;;7.17;100.00
61484;BME280;47349;55.640;37.692;2023-03-26T15:42:30;97336.25;;;7.16;100.00
61484;BME280;47349;55.640;37.692;2023-03-26T15:48:04;97338.69;;;7.17;100.00
61484;BME280;47349;55.640;37.692;2023-03-26T15:55:33;97347.91;;;7.15;100.00
61484;BME280;47349;55.640;37.692;2023-03-26T16:03:27;97355.28;;;7.19;100.00
61484;BME280;47349;55.640;37.692;2023-03-26T16:11:08;97353.88;;;7.17;100.00
61484;BME280;47349;55.640;37.692;2023-03-26T16:18:45;97346.69;;;7.17;100.00
61484;BME280;47349;55.640;37.692;2023-03-26T16:21:24;97352.25;;;7.16;100.00
61484;BME280;47349;55.640;37.692;2023-03-26T16:26:36;97350.34;;;7.23;100.00
61484;BME280;47349;55.640;37.692;2023-03-26T16:29:14;97353.25;;;7.21;100.00
61484;BME280;47349;55.640;37.692;2023-03-26T16:32:09;97354.69;;;7.17;100.00
61484;BME280;47349;55.640;37.692;2023-03-26T16:34:46;97348.13;;;7.13;100.00
61484;BME280;47349;55.640;37.692;2023-03-26T16:48:08;97356.72;;;7.15;100.00
61484;BME280;47349;55.640;37.692;2023-03-26T16:50:45;97354.28;;;7.14;100.00
61484;BME280;47349;55.640;37.692;2023-03-26T16:53:22;97354.28;;;7.14;100.00
61484;BME280;47349;55.640;37.692;2023-03-26T16:55:57;97359.84;;;7.06;100.00
61484;BME280;47349;55.640;37.692;2023-03-26T17:04:03;97360.47;;;7.08;100.00
61484;BME280;47349;55.640;37.692;2023-03-26T17:12:12;97352.28;;;7.03;100.00
61484;BME280;47349;55.640;37.692;2023-03-26T17:14:43;97360.50;;;7.01;100.00
61484;BME280;47349;55.640;37.692;2023-03-26T17:19:50;97364.97;;;7.07;100.00
61484;BME280;47349;55.640;37.692;2023-03-26T17:22:38;97362.31;;;7.07;100.00
61484;BME280;47349;55.640;37.692;2023-03-26T17:33:26;97368.66;;;7.06;100.00
61484;BME280;47349;55.640;37.692;2023-03-26T17:41:13;97366.19;;;7.11;100.00
61484;BME280;47349;55.640;37.692;2023-03-26T17:43:50;97350.22;;;7.11;100.00
61484;BME280;47349;55.640;37.692;2023-03-26T17:54:18;97344.50;;;7.01;100.00
61484;BME280;47349;55.640;37.692;2023-03-26T17:56:46;97351.88;;;6.99;100.00
61484;BME280;47349;55.640;37.692;2023-03-26T17:59:18;97347.78;;;7.03;100.00
61484;BME280;47349;55.640;37.692;2023-03-26T18:01:50;97352.69;;;7.06;100.00
61484;BME280;47349;55.640;37.692;2023-03-26T18:04:20;97350.22;;;7.05;100.00
61484;BME280;47349;55.640;37.692;2023-03-26T18:12:16;97337.91;;;7.10;100.00
61484;BME280;47349;55.640;37.692;2023-03-26T18:17:21;97348.13;;;7.13;100.00
61484;BME280;47349;55.640;37.692;2023-03-26T18:19:53;97353.47;;;7.13;100.00
61484;BME280;47349;55.640;37.692;2023-03-26T18:22:24;97343.63;;;7.14;100.00
61484;BME280;47349;55.640;37.692;2023-03-26T18:24:53;97342.19;;;7.18;100.00
61484;BME280;47349;55.640;37.692;2023-03-26T18:27:21;97351.81;;;7.19;100.00
61484;BME280;47349;55.640;37.692;2023-03-26T18:32:28;97348.50;;;7.24;100.00
61484;BME280;47349;55.640;37.692;2023-03-26T18:35:13;97348.94;;;7.20;100.00
61484;BME280;47349;55.640;37.692;2023-03-26T18:37:45;97336.25;;;7.16;100.00
61484;BME280;47349;55.640;37.692;2023-03-26T18:42:44;97345.66;;;7.18;100.00
61484;BME280;47349;55.640;37.692;2023-03-26T18:47:40;97339.09;;;7.21;100.00
61484;BME280;47349;55.640;37.692;2023-03-26T18:50:12;97337.84;;;7.24;100.00
61484;BME280;47349;55.640;37.692;2023-03-26T18:52:41;97336.63;;;7.26;100.00
61484;BME280;47349;55.640;37.692;2023-03-26T18:55:09;97333.31;;;7.31;100.00
61484;BME280;47349;55.640;37.692;2023-03-26T18:57:38;97337.38;;;7.33;100.00
61484;BME280;47349;55.640;37.692;2023-03-26T19:00:15;97331.03;;;7.34;100.00
61484;BME280;47349;55.640;37.692;2023-03-26T19:02:44;97336.16;;;7.36;100.00
61484;BME280;47349;55.640;37.692;2023-03-26T19:05:13;97338.19;;;7.34;100.00
61484;BME280;47349;55.640;37.692;2023-03-26T19:07:41;97342.72;;;7.33;100.00
61484;BME280;47349;55.640;37.692;2023-03-26T19:10:12;97350.50;;;7.35;100.00
61484;BME280;47349;55.640;37.692;2023-03-26T19:12:42;97344.75;;;7.38;100.00
61484;BME280;47349;55.640;37.692;2023-03-26T19:15:10;97342.31;;;7.36;100.00
61484;BME280;47349;55.640;37.692;2023-03-26T19:17:39;97330.03;;;7.29;100.00
61484;BME280;47349;55.640;37.692;2023-03-26T19:20:12;97335.34;;;7.29;100.00
61484;BME280;47349;55.640;37.692;2023-03-26T19:22:40;97339.25;;;7.33;100.00
61484;BME280;47349;55.640;37.692;2023-03-26T19:25:15;97330.66;;;7.24;100.00
61484;BME280;47349;55.640;37.692;2023-03-26T19:27:43;97325.16;;;7.26;100.00
61484;BME280;47349;55.640;37.692;2023-03-26T19:30:16;97324.31;;;7.25;100.00
61484;BME280;47349;55.640;37.692;2023-03-26T19:32:51;97324.94;;;7.27;100.00
61484;BME280;47349;55.640;37.692;2023-03-26T19:35:20;97328.41;;;7.28;100.00
61484;BME280;47349;55.640;37.692;2023-03-26T19:37:49;97327.19;;;7.24;100.00
61484;BME280;47349;55.640;37.692;2023-03-26T19:40:20;97318.78;;;7.20;100.00
61484;BME280;47349;55.640;37.692;2023-03-26T19:42:47;97320.22;;;7.22;100.00
61484;BME280;47349;55.640;37.692;2023-03-26T19:45:20;97320.00;;;7.24;100.00
61484;BME280;47349;55.640;37.692;2023-03-26T19:47:48;97319.81;;;7.26;100.00
61484;BME280;47349;55.640;37.692;2023-03-26T19:50:29;97322.69;;;7.24;100.00
61484;BME280;47349;55.640;37.692;2023-03-26T19:53:10;97317.63;;;7.16;100.00
61484;BME280;47349;55.640;37.692;2023-03-26T19:56:02;97321.47;;;7.20;100.00
61484;BME280;47349;55.640;37.692;2023-03-26T19:58:32;97317.38;;;7.17;100.00
61484;BME280;47349;55.640;37.692;2023-03-26T20:01:03;97326.81;;;7.13;100.00
61484;BME280;47349;55.640;37.692;2023-03-26T20:03:41;97332.97;;;7.14;100.00
61484;BME280;47349;55.640;37.692;2023-03-26T20:06:12;97330.53;;;7.12;100.00
61484;BME280;47349;55.640;37.692;2023-03-26T20:08:40;97335.84;;;7.12;100.00
61484;BME280;47349;55.640;37.692;2023-03-26T20:11:23;97337.31;;;7.08;100.00
61484;BME280;47349;55.640;37.692;2023-03-26T20:13:51;97333.19;;;7.06;100.00
61484;BME280;47349;55.640;37.692;2023-03-26T20:16:20;97336.53;;;7.01;100.00
61484;BME280;47349;55.640;37.692;2023-03-26T20:18:49;97338.34;;;7.01;100.00
61484;BME280;47349;55.640;37.692;2023-03-26T20:21:17;97329.94;;;7.04;100.00
61484;BME280;47349;55.640;37.692;2023-03-26T20:23:44;97334.28;;;6.98;100.00
61484;BME280;47349;55.640;37.692;2023-03-26T20:26:14;97324.88;;;6.89;100.00
61484;BME280;47349;55.640;37.692;2023-03-26T20:28:41;97334.09;;;6.86;100.00
61484;BME280;47349;55.640;37.692;2023-03-26T20:31:19;97332.91;;;6.82;100.00